createdAt,value
2018-06-11T00:02:28.748Z,6.32
2018-06-11T00:08:29.851Z,5.68
2018-06-11T00:12:30.355Z,6.03
2018-06-11T00:14:31.730Z,6.14
2018-06-11T00:18:33.038Z,5.32
2018-06-11T00:24:33.917Z,7.25
2018-06-11T00:28:35.787Z,6.57
2018-06-11T00:34:35.647Z,5.78
2018-06-11T00:38:36.436Z,5.28
2018-06-11T00:40:37.232Z,5.38
2018-06-11T00:44:38.915Z,4.88
2018-06-11T00:50:39.728Z,5.89
2018-06-11T00:54:40.458Z,5.91
2018-06-11T01:00:41.779Z,8.31
2018-06-11T01:04:42.383Z,5.63
2018-06-11T01:06:43.241Z,4.87
2018-06-11T01:16:45.252Z,5.82
2018-06-11T01:20:45.758Z,5.34
2018-06-11T01:26:46.636Z,5.75
2018-06-11T01:30:47.147Z,5.04
2018-06-11T01:32:47.829Z,5.25
2018-06-11T01:36:49.254Z,5.33
2018-06-11T01:42:49.417Z,5.62
2018-06-11T01:46:51.020Z,5.18
2018-06-11T01:52:51.018Z,5.37
2018-06-11T01:56:52.561Z,5.34
2018-06-11T01:58:52.414Z,5.7
2018-06-11T02:02:53.685Z,5.72
2018-06-11T02:08:53.939Z,5.41
2018-06-11T02:12:54.770Z,5.19
2018-06-11T02:18:55.603Z,5.68
2018-06-11T02:22:58.178Z,6.42
2018-06-11T02:24:56.997Z,6.39
2018-06-11T02:28:58.539Z,6.13
2018-06-11T02:34:59.434Z,6.03
2018-06-11T02:38:59.377Z,6.25
2018-06-11T02:45:00.746Z,6.15
2018-06-11T02:49:00.973Z,5.65
2018-06-11T02:51:02.634Z,5.54
2018-06-11T02:55:03.249Z,5.96
2018-06-11T03:01:03.805Z,5.42
2018-06-11T03:05:04.862Z,5.24
2018-06-11T03:12:21.860Z,5.86
2018-06-11T03:15:08.303Z,5.71
2018-06-11T03:17:09.352Z,8.17
2018-06-11T03:21:09.778Z,6.33
2018-06-11T03:27:12.355Z,6.56
2018-06-11T03:31:12.630Z,5.55
2018-06-11T03:37:14.365Z,6.25
2018-06-11T03:41:15.349Z,7.43
2018-06-11T03:43:16.847Z,6.45
2018-06-11T03:47:17.953Z,5.79
2018-06-11T03:53:18.991Z,6.02
2018-06-11T03:57:19.890Z,6.5
2018-06-11T04:03:20.549Z,8.12
2018-06-11T04:07:21.309Z,6.4
2018-06-11T04:09:22.314Z,7.3
2018-06-11T04:13:22.793Z,6.1
2018-06-11T04:19:23.541Z,6.99
2018-06-11T04:23:24.771Z,8.62
2018-06-11T04:29:25.095Z,5.15
2018-06-11T04:33:26.175Z,5.2
2018-06-11T04:35:26.594Z,5.87
2018-06-11T04:39:27.502Z,5.48
2018-06-11T04:45:29.533Z,5.3
2018-06-11T04:49:29.486Z,5.6
2018-06-11T04:55:30.291Z,7.87
2018-06-11T04:59:31.373Z,7.39
2018-06-11T05:01:31.693Z,5.71
2018-06-11T05:05:32.458Z,8.42
2018-06-11T05:11:33.582Z,7.25
2018-06-11T05:15:34.209Z,9.14
2018-06-11T05:21:35.315Z,8.58
2018-06-11T05:25:35.765Z,8.26
2018-06-11T05:27:36.508Z,6.99
2018-06-11T05:31:37.206Z,7.01
2018-06-11T05:37:39.073Z,7.1
2018-06-11T05:41:40.141Z,6.01
2018-06-11T05:47:42.977Z,6.85
2018-06-11T05:51:43.270Z,7.36
2018-06-11T05:53:44.488Z,7.56
2018-06-11T05:57:45.056Z,7.73
2018-06-11T06:03:46.293Z,8.94
2018-06-11T06:07:46.835Z,9.75
2018-06-11T06:13:47.519Z,10.89
2018-06-11T06:17:49.071Z,8.94
2018-06-11T06:19:49.918Z,8.29
2018-06-11T06:24:12.995Z,7.41
2018-06-11T06:29:51.145Z,6.64
2018-06-11T06:33:51.979Z,6.9
2018-06-11T06:39:52.938Z,7.86
2018-06-11T06:43:53.807Z,6.09
2018-06-11T06:45:55.198Z,9.44
2018-06-11T06:49:55.438Z,7.76
2018-06-11T06:55:56.499Z,7.21
2018-06-11T06:59:57.523Z,7.23
2018-06-11T07:05:58.701Z,7.12
2018-06-11T07:10:01.389Z,9.42
2018-06-11T07:12:04.061Z,8.91
2018-06-11T07:16:05.442Z,10.55
2018-06-11T07:22:05.798Z,6.4
2018-06-11T07:26:07.133Z,7.82
2018-06-11T07:32:08.442Z,7.96
2018-06-11T07:36:09.772Z,8.51
2018-06-11T07:38:10.223Z,9.13
2018-06-11T07:42:11.328Z,10.25
2018-06-11T07:48:11.701Z,7.61
2018-06-11T07:58:13.469Z,8.02
2018-06-11T08:02:14.712Z,9.02
2018-06-11T08:04:15.632Z,6.44
2018-06-11T08:08:16.607Z,6.65
2018-06-11T08:14:18.560Z,8.01
2018-06-11T08:18:21.180Z,7.87
2018-06-11T08:24:22.879Z,6.77
2018-06-11T08:28:23.550Z,7.84
2018-06-11T08:30:24.686Z,7.65
2018-06-11T08:34:26.794Z,8.08
2018-06-11T08:40:28.080Z,8.87
2018-06-11T08:44:29.206Z,8.31
2018-06-11T08:50:29.830Z,5.73
2018-06-11T08:54:30.611Z,9.08
2018-06-11T08:56:31.298Z,6.64
2018-06-11T09:00:32.839Z,9.03
2018-06-11T09:06:34.131Z,7.91
2018-06-11T09:10:34.314Z,6.62
2018-06-11T09:16:35.367Z,5.25
2018-06-11T09:20:36.041Z,6.59
2018-06-11T09:22:36.548Z,5.32
2018-06-11T09:26:37.241Z,6.1
2018-06-11T09:32:40.209Z,7.37
2018-06-11T09:36:43.064Z,6.78
2018-06-11T09:42:46.297Z,6.15
2018-06-11T09:46:48.263Z,7.16
2018-06-11T09:52:49.343Z,8.49
2018-06-11T09:58:50.117Z,6.62
2018-06-11T10:02:50.903Z,6.4
2018-06-11T10:08:52.525Z,7.7
2018-06-11T10:12:52.652Z,6.25
2018-06-11T10:18:53.331Z,4.71
2018-06-11T10:24:53.986Z,5.07
2018-06-11T10:28:54.628Z,6.99
2018-06-11T10:34:55.523Z,9.74
2018-06-11T10:38:56.201Z,9.03
2018-06-11T10:40:57.236Z,7.23
2018-06-11T10:44:57.675Z,7.09
2018-06-11T10:50:58.448Z,7.34
2018-06-11T10:54:59.563Z,8.12
2018-06-11T11:01:00.354Z,6.76
2018-06-11T11:05:01.704Z,9.41
2018-06-11T11:07:02.505Z,5.81
2018-06-11T11:11:07.493Z,6.98
2018-06-11T11:32:06.135Z,5.71
2018-06-11T11:32:16.359Z,6.57
2018-06-11T11:32:43.648Z,6.66
2018-06-11T11:42:49.054Z,9.43
2018-06-11T11:42:50.218Z,5.01
2018-06-11T11:46:51.399Z,5.04
2018-06-11T11:48:52.367Z,7.26
2018-06-11T11:52:52.647Z,8.9
2018-06-11T11:58:55.733Z,7.1
2018-06-11T12:02:56.371Z,8.55
2018-06-11T12:08:57.023Z,6.38
2018-06-11T12:12:58.300Z,10.22
2018-06-11T12:15:00.296Z,5.77
2018-06-11T12:19:01.200Z,6.72
2018-06-11T12:25:00.561Z,5.71
2018-06-11T12:29:01.621Z,7.17
2018-06-11T12:35:06.179Z,7.46
2018-06-11T12:39:06.343Z,6.27
2018-06-11T12:41:05.599Z,6.43
2018-06-11T12:51:10.708Z,8.02
2018-06-11T12:55:11.266Z,8.57
2018-06-11T13:01:13.329Z,4.42
2018-06-11T13:05:13.663Z,4.81
2018-06-11T13:07:15.532Z,6.75
2018-06-11T13:21:18.355Z,5.53
2018-06-11T13:21:19.508Z,5.35
2018-06-11T13:21:29.930Z,6
2018-06-11T13:27:30.825Z,4.99
2018-06-11T13:31:33.254Z,4.33
2018-06-11T13:37:34.761Z,6.71
2018-06-11T13:41:36.743Z,6.83
2018-06-11T13:43:37.762Z,6.77
2018-06-11T13:47:38.796Z,5.73
2018-06-11T13:53:40.870Z,5.75
2018-06-11T13:57:41.325Z,8.65
2018-06-11T14:03:42.313Z,7.87
2018-06-11T14:07:42.860Z,9.58
2018-06-11T14:09:43.582Z,6.21
2018-06-11T14:13:44.280Z,4.63
2018-06-11T14:19:45.497Z,7.24
2018-06-11T14:23:46.334Z,5.39
2018-06-11T14:29:46.993Z,6.1
2018-06-11T14:35:47.726Z,8.25
2018-06-11T14:39:48.506Z,6.12
2018-06-11T14:45:49.895Z,5.94
2018-06-11T14:49:51.625Z,5.26
2018-06-11T14:55:52.838Z,5.55
2018-06-11T15:01:53.674Z,8.18
2018-06-11T15:05:55.058Z,7.72
2018-06-11T15:11:56.059Z,7.4
2018-06-11T15:15:56.564Z,7.29
2018-06-11T15:21:58.176Z,6.96
2018-06-11T15:27:59.149Z,8.67
2018-06-11T15:32:00.129Z,7.89
2018-06-11T15:42:01.388Z,7.42
2018-06-11T15:48:01.504Z,10.3
2018-06-11T15:54:18.067Z,8.32
2018-06-11T15:58:04.506Z,7.67
2018-06-11T16:04:04.097Z,8.33
2018-06-11T16:08:06.464Z,6.91
2018-06-11T16:10:07.886Z,5.89
2018-06-11T16:14:07.289Z,8.18
2018-06-11T16:20:08.096Z,7.23
2018-06-11T16:24:09.517Z,6.45
2018-06-11T16:30:10.444Z,11.14
2018-06-11T16:34:11.638Z,11.29
2018-06-11T16:36:12.040Z,6.91
2018-06-11T16:40:14.260Z,16.4
2018-06-11T16:46:14.555Z,10.28
2018-06-11T16:50:16.210Z,8.75
2018-06-11T16:56:16.685Z,12.2
2018-06-11T17:00:18.078Z,9.3
2018-06-11T17:02:19.554Z,7.25
2018-06-11T17:06:21.038Z,8.99
2018-06-11T17:12:20.462Z,7.24
2018-06-11T17:16:21.864Z,5.58
2018-06-11T17:22:22.273Z,8.91
2018-06-11T17:26:23.154Z,8.04
2018-06-11T17:28:24.827Z,7.74
2018-06-11T17:32:26.741Z,7.34
2018-06-11T17:38:27.029Z,8.97
2018-06-11T17:42:28.024Z,10.79
2018-06-11T17:48:29.396Z,16.25
2018-06-11T17:52:30.085Z,17.23
2018-06-11T17:54:30.524Z,11.82
2018-06-11T17:58:31.294Z,12.59
2018-06-11T18:04:32.517Z,10.56
2018-06-11T18:08:34.459Z,7.97
2018-06-11T18:14:36.163Z,13.23
2018-06-11T18:18:37.937Z,12.01
2018-06-11T18:20:38.044Z,13.62
2018-06-11T18:24:39.380Z,12.62
2018-06-11T18:30:40.505Z,10.19
2018-06-11T18:34:41.270Z,9.95
2018-06-11T18:40:41.930Z,10.26
2018-06-11T18:44:42.626Z,11.8
2018-06-11T18:46:43.592Z,9.69
2018-06-11T18:50:44.052Z,10.72
2018-06-11T18:56:44.885Z,8.06
2018-06-11T19:00:48.366Z,9.08
2018-06-11T19:06:46.192Z,9.14
2018-06-11T19:10:46.953Z,6.25
2018-06-11T19:12:47.797Z,9.94
2018-06-11T19:16:48.568Z,8.92
2018-06-11T19:22:49.199Z,13.79
2018-06-11T19:27:10.027Z,12.74
2018-06-11T19:32:50.827Z,12.44
2018-06-11T19:38:51.807Z,11.86
2018-06-11T19:42:52.485Z,10.21
2018-06-11T19:48:53.366Z,11.51
2018-06-11T19:52:54.681Z,13.4
2018-06-11T19:58:55.469Z,8.48
2018-06-11T20:04:56.292Z,12.56
2018-06-11T20:08:56.875Z,10.81
2018-06-11T20:14:57.609Z,14.21
2018-06-11T20:18:58.351Z,13.57
2018-06-11T20:24:59.308Z,13.5
2018-06-11T20:31:00.134Z,12.46
2018-06-11T20:35:00.942Z,12.7
2018-06-11T20:41:01.679Z,15.06
2018-06-11T20:45:02.473Z,13.63
2018-06-11T20:51:03.194Z,13.79
2018-06-11T20:57:03.981Z,12.26
2018-06-11T21:01:04.651Z,11.75
2018-06-11T21:07:05.665Z,11.07
2018-06-11T21:11:06.275Z,10.81
2018-06-11T21:17:06.944Z,10.44
2018-06-11T21:23:07.707Z,9.97
2018-06-11T21:27:08.707Z,8.51
2018-06-11T21:33:09.710Z,9.15
2018-06-11T21:37:10.453Z,10.48
2018-06-11T21:39:11.281Z,10.17
2018-06-11T21:43:11.989Z,9.53
2018-06-11T21:49:12.635Z,7.46
2018-06-11T21:53:13.332Z,8.25
2018-06-11T21:59:14.579Z,7.38
2018-06-11T22:03:15.144Z,7.17
2018-06-11T22:05:15.744Z,10.15
2018-06-11T22:09:16.431Z,7.13
2018-06-11T22:15:18.211Z,9.35
2018-06-11T22:19:18.821Z,8.03
2018-06-11T22:25:19.517Z,7.64
2018-06-11T22:29:20.216Z,7.42
2018-06-11T22:31:21.380Z,7.92
2018-06-11T22:35:22.264Z,7.85
2018-06-11T22:41:23.477Z,8.21
2018-06-11T22:45:24.986Z,5.37
2018-06-11T22:51:25.751Z,7.17
2018-06-11T22:55:26.474Z,10.47
2018-06-11T22:57:27.261Z,7.51
2018-06-11T23:01:28.197Z,10.26
2018-06-11T23:07:28.964Z,6.34
2018-06-11T23:11:29.673Z,5.54
2018-06-11T23:17:30.499Z,7.56
2018-06-11T23:21:31.343Z,8.21
2018-06-11T23:23:32.082Z,5.62
2018-06-11T23:27:33.072Z,6.64
2018-06-11T23:33:33.811Z,8.4
2018-06-11T23:37:34.848Z,7.19
2018-06-11T23:43:35.555Z,5.52
2018-06-11T23:47:36.276Z,5.16
2018-06-11T23:49:37.628Z,6.03
2018-06-11T23:53:39.200Z,6.29
2018-06-11T23:59:39.953Z,5.25
